Time;durP1;ratioP1;P1;durP2;ratioP2;P2;SDS_P1;SDS_P2;PMS_P1;PMS_P2;Temp;Humidity;BMP_temperature;BMP_pressure;BME280_temperature;BME280_humidity;BME280_pressure;Samples;Min_cycle;Max_cycle;Signal;HPM_P1;HPM_P2
2022/06/30 00:00:18;;;;;;;12.18;10.38;;;;;;;22.05;55.68;100583.19;678742;29;1477;-81
2022/06/30 00:00:39;;;;;;;11.53;10.43;;;;;;;22.03;55.85;100574.41;677602;29;1313;-81
2022/06/30 00:01:00;;;;;;;11.07;9.98;;;;;;;22.03;55.81;100574.41;672319;29;1253;-82
2022/06/30 00:01:21;;;;;;;10.70;9.70;;;;;;;22.05;56.02;100583.19;678120;29;1520;-81
2022/06/30 00:01:44;;;;;;;10.53;9.43;;;;;;;22.09;56.02;100591.97;682775;29;1367;-82
2022/06/30 00:02:04;;;;;;;11.50;9.45;;;;;;;22.00;56.00;100570.94;685292;28;1366;-82
2022/06/30 00:02:38;;;;;;;11.80;9.70;;;;;;;22.12;55.97;100588.38;680902;29;1726;-81
2022/06/30 00:02:58;;;;;;;10.98;9.50;;;;;;;22.06;55.96;100584.06;682077;29;1480;-81
2022/06/30 00:03:19;;;;;;;10.30;9.40;;;;;;;22.03;55.85;100578.81;677567;29;955;-81
2022/06/30 00:03:40;;;;;;;10.32;9.43;;;;;;;22.08;55.73;100592.88;677570;29;1595;-81
2022/06/30 00:04:01;;;;;;;10.63;9.50;;;;;;;21.97;55.84;100582.50;677510;29;1242;-81
2022/06/30 00:04:22;;;;;;;11.63;9.52;;;;;;;22.01;55.65;100588.63;679185;29;1604;-81
2022/06/30 00:04:44;;;;;;;12.27;9.82;;;;;;;22.00;55.86;100579.75;679060;29;1261;-82
2022/06/30 00:05:05;;;;;;;10.82;9.73;;;;;;;22.01;55.88;100585.97;680047;29;1170;-82
2022/06/30 00:05:26;;;;;;;11.45;10.35;;;;;;;22.02;56.09;100587.72;682345;29;1638;-81
2022/06/30 00:05:47;;;;;;;11.13;10.13;;;;;;;22.03;56.01;100589.44;677576;29;1197;-81
2022/06/30 00:06:07;;;;;;;11.27;10.23;;;;;;;22.02;55.95;100587.72;677511;29;1071;-82
2022/06/30 00:06:28;;;;;;;10.80;9.70;;;;;;;21.93;55.98;100571.97;677109;29;1275;-82
2022/06/30 00:06:50;;;;;;;11.07;9.95;;;;;;;21.97;56.28;100579.84;677499;29;1451;-81
2022/06/30 00:07:11;;;;;;;10.98;9.88;;;;;;;21.97;56.05;100577.19;679886;29;1559;-83
2022/06/30 00:07:31;;;;;;;11.23;10.13;;;;;;;22.03;56.23;100589.44;678891;29;1273;-81
2022/06/30 00:07:52;;;;;;;10.95;9.95;;;;;;;22.02;56.15;100587.72;677395;29;1301;-81
2022/06/30 00:08:13;;;;;;;10.90;9.83;;;;;;;22.02;56.30;100587.72;677345;29;1631;-81
2022/06/30 00:08:34;;;;;;;10.70;9.70;;;;;;;21.90;56.09;100568.47;677469;29;1294;-81
2022/06/30 00:09:06;;;;;;;10.55;9.45;;;;;;;21.94;56.05;100573.72;680044;29;1272;-81
2022/06/30 00:09:27;;;;;;;10.50;9.40;;;;;;;21.99;56.17;100585.09;674848;29;944;-81
2022/06/30 00:09:48;;;;;;;10.37;9.37;;;;;;;21.93;56.15;100571.97;679793;29;1160;-82
2022/06/30 00:10:11;;;;;;;10.70;9.70;;;;;;;21.91;56.18;100564.91;679992;29;1155;-81
2022/06/30 00:10:32;;;;;;;10.93;9.93;;;;;;;21.96;56.15;100583.41;682844;28;1127;-81
2022/06/30 00:10:53;;;;;;;11.00;9.98;;;;;;;21.92;56.08;100576.41;680064;29;1211;-81
2022/06/30 00:11:14;;;;;;;11.07;9.97;;;;;;;21.96;56.55;100583.41;680777;29;1242;-82
2022/06/30 00:11:35;;;;;;;10.18;9.18;;;;;;;21.89;56.21;100574.69;679529;29;1344;-82
2022/06/30 00:11:55;;;;;;;10.65;9.30;;;;;;;21.93;56.16;100577.28;679968;29;1426;-81
2022/06/30 00:12:16;;;;;;;10.60;9.33;;;;;;;21.96;56.53;100587.84;678378;29;934;-81
2022/06/30 00:12:38;;;;;;;11.20;9.93;;;;;;;21.90;56.14;100575.56;681967;29;1238;-82
2022/06/30 00:12:59;;;;;;;10.85;9.85;;;;;;;21.88;56.47;100575.59;680225;29;1075;-82
2022/06/30 00:13:20;;;;;;;10.60;9.60;;;;;;;21.91;56.15;100583.53;685198;28;1298;-81
2022/06/30 00:13:41;;;;;;;10.73;9.73;;;;;;;21.84;56.27;100571.28;680189;29;1278;-82
2022/06/30 00:14:02;;;;;;;10.88;9.88;;;;;;;21.85;56.36;100575.69;677458;29;1378;-82
2022/06/30 00:14:23;;;;;;;11.70;10.60;;;;;;;21.91;56.38;100579.97;679675;29;2062;-81
2022/06/30 00:14:44;;;;;;;11.75;10.55;;;;;;;21.87;56.30;100578.28;677559;29;785;-82
2022/06/30 00:15:05;;;;;;;11.63;10.43;;;;;;;21.88;56.46;100580.91;677423;29;1087;-82
2022/06/30 00:15:26;;;;;;;10.52;9.48;;;;;;;21.92;56.47;100592.34;680088;29;1895;-81
2022/06/30 00:15:47;;;;;;;10.30;9.30;;;;;;;21.81;56.42;100567.81;677476;29;1075;-82
2022/06/30 00:16:20;;;;;;;10.25;9.25;;;;;;;21.85;56.30;100573.03;674488;29;1093;-81
2022/06/30 00:17:14;;;;;;;10.75;9.70;;;;;;;21.92;56.59;100587.03;680286;29;895;-81
2022/06/30 00:17:42;;;;;;;11.00;9.93;;;;;;;21.83;56.38;100572.16;679909;29;1562;-82
2022/06/30 00:18:03;;;;;;;10.75;9.75;;;;;;;21.85;56.50;100582.75;682919;29;1083;-82
2022/06/30 00:18:24;;;;;;;10.40;9.40;;;;;;;21.80;56.54;100572.25;677632;29;1571;-82
2022/06/30 00:18:45;;;;;;;10.20;9.20;;;;;;;21.88;56.47;100586.22;688139;28;1920;-81
2022/06/30 00:19:06;;;;;;;9.90;9.00;;;;;;;21.81;56.58;100567.81;685349;28;1089;-82
2022/06/30 00:19:26;;;;;;;9.95;9.05;;;;;;;21.79;56.65;100565.19;685229;28;1664;-81
2022/06/30 00:19:47;;;;;;;10.40;9.40;;;;;;;21.82;56.42;100574.88;685031;28;1200;-82
2022/06/30 00:20:08;;;;;;;10.73;9.63;;;;;;;21.77;56.66;100564.34;680204;29;1095;-82
2022/06/30 00:20:29;;;;;;;10.77;9.68;;;;;;;21.86;56.46;100587.16;676942;29;1679;-81
2022/06/30 00:20:50;;;;;;;11.00;9.90;;;;;;;21.81;56.67;100573.97;679459;29;1247;-81
2022/06/30 00:21:28;;;;;;;10.70;9.70;;;;;;;21.83;56.66;100577.47;682585;29;1111;-81
2022/06/30 00:21:49;;;;;;;11.07;9.88;;;;;;;21.77;56.59;100574.97;680072;29;1108;-81
2022/06/30 00:22:11;;;;;;;10.90;9.80;;;;;;;21.81;56.69;100578.44;677556;29;1680;-81
2022/06/30 00:22:31;;;;;;;11.45;10.27;;;;;;;21.77;56.62;100572.31;682116;29;1760;-82
2022/06/30 00:22:52;;;;;;;11.20;10.10;;;;;;;21.76;56.71;100568.78;682781;28;1435;-81
2022/06/30 00:23:13;;;;;;;11.43;10.23;;;;;;;21.78;56.71;100576.72;677320;29;1974;-81
2022/06/30 00:23:34;;;;;;;11.07;9.70;;;;;;;21.80;56.74;100579.34;680674;28;1413;-81
2022/06/30 00:23:55;;;;;;;10.93;9.50;;;;;;;21.76;56.83;100575.88;680061;29;1156;-81
2022/06/30 00:24:15;;;;;;;10.80;9.70;;;;;;;21.72;56.84;100558.25;677024;29;1794;-81
2022/06/30 00:24:36;;;;;;;10.60;9.60;;;;;;;21.71;56.74;100572.44;682582;28;1212;-81
2022/06/30 00:24:57;;;;;;;10.80;9.80;;;;;;;21.75;56.85;100572.34;680243;29;1805;-82
2022/06/30 00:25:18;;;;;;;10.63;9.53;;;;;;;21.77;56.91;100589.13;680223;29;1481;-82
2022/06/30 00:25:39;;;;;;;11.73;9.82;;;;;;;21.75;56.76;100575.00;678688;29;1198;-81
2022/06/30 00:26:00;;;;;;;11.02;9.60;;;;;;;21.75;56.88;100576.78;674804;29;1285;-81
2022/06/30 00:26:20;;;;;;;11.85;9.40;;;;;;;21.77;56.99;100582.94;677170;29;1295;-81
2022/06/30 00:26:41;;;;;;;12.90;9.70;;;;;;;21.69;56.83;100561.00;680073;29;1186;-81
2022/06/30 00:27:02;;;;;;;13.60;10.27;;;;;;;21.74;57.15;100567.06;674899;29;1285;-81
2022/06/30 00:27:23;;;;;;;13.32;10.68;;;;;;;21.72;57.19;100564.47;680262;29;1301;-81
2022/06/30 00:27:44;;;;;;;11.70;10.50;;;;;;;21.76;56.98;100576.75;677617;29;1182;-81
2022/06/30 00:28:05;;;;;;;11.43;10.23;;;;;;;21.71;57.10;100569.78;674784;29;1325;-81
2022/06/30 00:28:25;;;;;;;11.20;10.10;;;;;;;21.68;57.17;100559.25;676599;29;1224;-81
2022/06/30 00:28:47;;;;;;;11.40;10.20;;;;;;;21.70;57.27;100568.06;679860;29;1245;-81
2022/06/30 00:29:07;;;;;;;11.90;10.70;;;;;;;21.69;57.20;100566.31;680131;29;1082;-81
2022/06/30 00:29:28;;;;;;;12.10;10.90;;;;;;;21.71;57.21;100561.81;679306;29;1461;-81
2022/06/30 00:29:48;;;;;;;11.95;10.85;;;;;;;21.71;57.06;100572.44;674667;29;1051;-81
2022/06/30 00:30:09;;;;;;;11.40;10.30;;;;;;;21.74;57.12;100575.03;674463;29;1147;-81
2022/06/30 00:30:30;;;;;;;11.52;10.35;;;;;;;21.65;56.99;100562.84;681124;29;1531;-81
2022/06/30 00:31:00;;;;;;;11.47;10.37;;;;;;;21.63;57.20;100557.56;684701;28;1234;-81
2022/06/30 00:31:21;;;;;;;11.00;10.00;;;;;;;21.67;57.28;100562.78;680273;28;1464;-81
2022/06/30 00:31:42;;;;;;;10.95;9.90;;;;;;;21.68;57.16;100569.88;682676;29;800;-81
2022/06/30 00:32:03;;;;;;;11.17;9.93;;;;;;;21.68;57.11;100561.91;682298;29;1132;-81
2022/06/30 00:32:24;;;;;;;11.52;10.30;;;;;;;21.70;57.28;100568.06;677278;29;1196;-81
2022/06/30 00:32:44;;;;;;;11.40;10.30;;;;;;;21.68;57.26;100570.72;680164;29;1288;-81
2022/06/30 00:33:05;;;;;;;11.05;10.05;;;;;;;21.67;57.25;100561.03;677382;29;1102;-81
2022/06/30 00:33:26;;;;;;;10.73;9.73;;;;;;;21.67;57.45;100565.44;677966;29;1491;-81
2022/06/30 00:33:46;;;;;;;10.37;9.47;;;;;;;21.70;57.26;100565.41;680067;29;1147;-82
2022/06/30 00:34:07;;;;;;;11.20;10.10;;;;;;;21.67;57.48;100562.78;682780;29;1152;-81
2022/06/30 00:34:28;;;;;;;11.50;10.30;;;;;;;21.62;57.28;100549.63;677806;29;1900;-81
2022/06/30 00:34:49;;;;;;;11.77;10.57;;;;;;;21.62;57.18;100553.16;677521;29;1129;-81
2022/06/30 00:35:10;;;;;;;11.10;10.10;;;;;;;21.68;57.34;100561.91;677371;29;1384;-81
2022/06/30 00:35:30;;;;;;;11.20;10.10;;;;;;;21.64;57.41;100556.66;680514;29;1208;-81
2022/06/30 00:35:51;;;;;;;11.02;9.93;;;;;;;21.69;57.22;100571.63;682802;29;953;-81
2022/06/30 00:36:12;;;;;;;11.35;10.23;;;;;;;21.63;57.45;100552.25;679974;29;1721;-81
2022/06/30 00:36:32;;;;;;;11.20;10.10;;;;;;;21.69;57.55;100561.00;678286;29;1150;-81
2022/06/30 00:36:53;;;;;;;11.27;10.18;;;;;;;21.67;57.30;100565.44;677433;29;1199;-81
2022/06/30 00:37:14;;;;;;;13.63;10.00;;;;;;;21.62;57.41;100550.50;679556;29;1705;-81
2022/06/30 00:37:36;;;;;;;15.70;10.30;;;;;;;21.63;57.35;100557.56;682609;29;1364;-81
2022/06/30 00:37:57;;;;;;;13.63;10.35;;;;;;;21.61;57.71;100556.72;679896;29;1388;-81
2022/06/30 00:38:17;;;;;;;11.40;10.33;;;;;;;21.66;57.61;100564.59;677331;29;1895;-81
2022/06/30 00:38:38;;;;;;;11.25;10.25;;;;;;;21.61;57.44;100556.72;675789;29;1915;-81
2022/06/30 00:38:58;;;;;;;11.17;10.07;;;;;;;21.59;57.55;100547.03;680092;29;1176;-81
2022/06/30 00:39:20;;;;;;;10.70;9.60;;;;;;;21.57;57.60;100549.72;679756;29;1991;-81
2022/06/30 00:39:41;;;;;;;10.55;9.45;;;;;;;21.64;57.62;100556.66;677039;29;1129;-81
2022/06/30 00:40:02;;;;;;;10.77;9.77;;;;;;;21.61;57.50;100546.09;677399;29;1027;-82
2022/06/30 00:40:23;;;;;;;11.40;10.30;;;;;;;21.62;57.57;100554.94;682414;28;1416;-81
2022/06/30 00:40:45;;;;;;;11.57;10.38;;;;;;;21.62;57.68;100554.94;677567;29;1238;-82
2022/06/30 00:41:06;;;;;;;11.55;10.40;;;;;;;21.60;57.60;100544.34;677577;29;1182;-81
2022/06/30 00:41:27;;;;;;;11.32;10.32;;;;;;;21.60;57.50;100549.66;679945;29;1681;-81
2022/06/30 00:41:48;;;;;;;11.70;10.50;;;;;;;21.63;57.58;100560.22;684757;28;1181;-81
2022/06/30 00:42:09;;;;;;;11.70;10.50;;;;;;;21.59;57.68;100547.91;680008;29;1145;-81
2022/06/30 00:42:30;;;;;;;11.43;10.23;;;;;;;21.58;57.61;100548.81;681855;29;2243;-81
2022/06/30 00:42:51;;;;;;;10.90;9.90;;;;;;;21.68;57.60;100567.22;677380;29;1313;-82
2022/06/30 00:43:13;;;;;;;10.90;9.90;;;;;;;21.62;57.69;100553.16;676970;29;1167;-80
2022/06/30 00:43:44;;;;;;;10.65;9.65;;;;;;;21.64;57.65;100561.09;676632;29;1067;-81
2022/06/30 00:44:07;;;;;;;10.48;9.48;;;;;;;21.63;57.56;100552.25;675002;29;1396;-82
2022/06/30 00:44:28;;;;;;;10.80;9.80;;;;;;;21.60;57.83;100556.75;677934;29;1608;-81
2022/06/30 00:44:49;;;;;;;11.07;10.07;;;;;;;21.64;57.75;100564.59;685319;28;1075;-81
2022/06/30 00:45:10;;;;;;;11.00;10.00;;;;;;;21.53;57.62;100542.75;687960;28;1277;-82
2022/06/30 00:45:31;;;;;;;10.80;9.80;;;;;;;21.62;57.53;100553.16;681707;28;1360;-81
2022/06/30 00:45:52;;;;;;;10.52;9.52;;;;;;;21.61;57.61;100561.16;682662;29;1281;-81
2022/06/30 00:46:18;;;;;;;10.45;9.45;;;;;;;21.56;57.78;100555.94;685208;28;1184;-81
2022/06/30 00:46:40;;;;;;;10.52;9.52;;;;;;;21.58;57.81;100554.13;679516;29;1500;-81
2022/06/30 00:47:01;;;;;;;11.82;9.85;;;;;;;21.50;57.79;100542.78;680113;29;959;-81
2022/06/30 00:47:21;;;;;;;11.80;9.60;;;;;;;21.55;57.87;100551.53;679151;29;1245;-81
2022/06/30 00:47:42;;;;;;;11.13;9.73;;;;;;;21.55;57.84;100556.84;678850;29;1283;-81
2022/06/30 00:48:03;;;;;;;12.68;10.07;;;;;;;21.54;57.89;100552.44;676650;29;1197;-80
2022/06/30 00:48:24;;;;;;;13.48;10.70;;;;;;;21.58;57.74;100562.09;682274;28;1678;-81
2022/06/30 00:48:45;;;;;;;13.50;10.40;;;;;;;21.58;57.87;100562.09;677034;29;1363;-81
2022/06/30 00:49:06;;;;;;;11.50;10.30;;;;;;;21.59;57.73;100569.13;677299;29;1340;-82
2022/06/30 00:49:27;;;;;;;11.50;10.30;;;;;;;21.58;57.55;100561.22;676958;29;1910;-81
2022/06/30 00:49:48;;;;;;;11.15;10.05;;;;;;;21.55;57.87;100556.84;677054;29;1101;-81
2022/06/30 00:50:09;;;;;;;12.20;10.00;;;;;;;21.52;57.83;100554.28;677414;29;1077;-82
2022/06/30 00:50:30;;;;;;;14.10;10.00;;;;;;;21.47;57.80;100543.69;677135;29;1659;-81
2022/06/30 00:50:51;;;;;;;14.85;10.02;;;;;;;21.50;57.71;100548.09;685195;28;1214;-81
2022/06/30 00:51:11;;;;;;;13.80;10.10;;;;;;;21.45;57.82;100542.84;682390;28;1727;-81
2022/06/30 00:51:32;;;;;;;12.88;10.00;;;;;;;21.51;57.70;100549.84;679979;29;1606;-81
2022/06/30 00:51:53;;;;;;;11.77;10.38;;;;;;;21.52;57.93;100554.28;680043;29;1164;-81
2022/06/30 00:52:15;;;;;;;11.50;10.30;;;;;;;21.54;57.77;100559.53;676991;29;1999;-81
2022/06/30 00:52:37;;;;;;;11.65;10.55;;;;;;;21.45;57.83;100545.50;679980;29;1458;-81
2022/06/30 00:53:01;;;;;;;11.60;10.50;;;;;;;21.48;57.98;100544.56;682694;29;1216;-81
2022/06/30 00:53:23;;;;;;;11.45;10.35;;;;;;;21.48;58.07;100550.78;677164;29;1193;-81
2022/06/30 00:53:46;;;;;;;11.30;10.20;;;;;;;21.52;58.09;100559.59;680078;29;1144;-81
2022/06/30 00:54:07;;;;;;;10.82;9.73;;;;;;;21.48;58.15;100555.19;674728;29;1272;-81
2022/06/30 00:54:29;;;;;;;12.60;10.07;;;;;;;21.54;58.13;100562.19;676705;29;2066;-81
2022/06/30 00:54:52;;;;;;;13.45;10.68;;;;;;;21.42;58.03;100544.69;677464;29;1007;-81
2022/06/30 00:55:15;;;;;;;14.85;11.00;;;;;;;21.44;58.09;100549.06;671793;29;1454;-81
2022/06/30 00:55:39;;;;;;;13.00;10.77;;;;;;;21.49;58.24;100559.63;681690;29;1509;-81
2022/06/30 00:56:02;;;;;;;12.35;10.25;;;;;;;21.48;58.10;100561.38;677538;29;1260;-81
2022/06/30 00:56:26;;;;;;;11.38;10.18;;;;;;;21.42;58.18;100542.03;677087;29;1769;-81
2022/06/30 00:56:48;;;;;;;10.93;9.75;;;;;;;21.43;58.14;100543.78;674867;29;1105;-81
2022/06/30 00:57:10;;;;;;;10.80;9.60;;;;;;;21.48;58.32;100563.16;674818;29;1252;-81
2022/06/30 00:57:34;;;;;;;10.90;9.80;;;;;;;21.40;58.12;100551.81;679464;29;1290;-80
2022/06/30 00:57:56;;;;;;;10.85;9.85;;;;;;;21.45;58.25;100549.97;677959;29;1069;-81
2022/06/30 00:58:19;;;;;;;11.20;10.10;;;;;;;21.38;58.19;100538.59;682384;29;1879;-81
2022/06/30 00:58:41;;;;;;;11.25;10.05;;;;;;;21.39;58.27;100542.13;677344;29;1915;-82
2022/06/30 00:59:04;;;;;;;11.05;9.93;;;;;;;21.44;58.20;100548.19;674589;29;1277;-82
2022/06/30 00:59:27;;;;;;;11.10;10.10;;;;;;;21.42;58.34;100550.00;684608;28;2229;-81
2022/06/30 00:59:50;;;;;;;11.50;10.50;;;;;;;21.44;58.31;100553.50;674352;29;1630;-81
2022/06/30 01:00:12;;;;;;;11.80;10.70;;;;;;;21.37;58.21;100539.50;676523;29;1856;-81
2022/06/30 01:00:36;;;;;;;11.65;10.52;;;;;;;21.39;58.39;100548.28;679808;29;1324;-82
2022/06/30 01:00:58;;;;;;;11.20;10.10;;;;;;;21.41;58.21;100542.97;681619;29;1223;-82
2022/06/30 01:01:19;;;;;;;11.15;10.05;;;;;;;21.33;58.36;100535.16;675967;29;1923;-81
2022/06/30 01:01:43;;;;;;;11.20;10.20;;;;;;;21.31;58.21;100534.31;677328;29;1706;-81
2022/06/30 01:02:04;;;;;;;11.38;10.38;;;;;;;21.37;58.44;100537.72;677415;29;1107;-82
2022/06/30 01:02:27;;;;;;;11.27;10.25;;;;;;;21.40;58.33;100547.41;680581;29;1472;-81
2022/06/30 01:02:48;;;;;;;10.80;9.80;;;;;;;21.33;58.56;100538.69;679942;29;1255;-82
2022/06/30 01:03:09;;;;;;;10.68;9.70;;;;;;;21.32;58.50;100534.28;680390;29;1215;-82
2022/06/30 01:03:32;;;;;;;11.18;10.18;;;;;;;21.40;58.38;100543.88;681064;28;1955;-81
2022/06/30 01:03:55;;;;;;;11.38;10.27;;;;;;;21.33;58.67;100530.72;677452;29;1462;-81
2022/06/30 01:04:16;;;;;;;11.18;10.05;;;;;;;21.29;58.41;100526.41;674573;29;2027;-81
2022/06/30 01:04:40;;;;;;;11.55;10.35;;;;;;;21.31;58.56;100537.84;678598;29;1378;-81
2022/06/30 01:05:01;;;;;;;11.60;10.40;;;;;;;21.35;58.59;100539.50;674727;29;1326;-81
2022/06/30 01:05:45;;;;;;;11.65;10.45;;;;;;;21.39;58.44;100550.94;676157;29;1654;-82
2022/06/30 01:06:06;;;;;;;11.40;10.40;;;;;;;21.30;58.40;100536.09;679066;29;1574;-81
2022/06/30 01:06:28;;;;;;;11.65;10.55;;;;;;;21.32;58.60;100539.59;677825;29;1543;-81
2022/06/30 01:06:49;;;;;;;11.65;10.55;;;;;;;21.28;58.60;100537.91;677238;29;1261;-81
2022/06/30 01:07:10;;;;;;;11.60;10.40;;;;;;;21.33;58.71;100541.34;680044;29;1242;-81
2022/06/30 01:07:32;;;;;;;11.68;10.48;;;;;;;21.28;58.66;100522.00;677375;29;1003;-81
2022/06/30 01:07:54;;;;;;;11.68;10.48;;;;;;;21.25;58.61;100527.34;674761;29;1288;-81
2022/06/30 01:08:16;;;;;;;11.90;10.70;;;;;;;21.24;58.81;100528.25;674514;29;1662;-81
2022/06/30 01:08:37;;;;;;;12.07;10.77;;;;;;;21.30;58.58;100532.56;679668;29;1413;-81
2022/06/30 01:08:58;;;;;;;12.23;10.90;;;;;;;21.25;58.78;100529.16;685471;28;964;-81
2022/06/30 01:12:43;;;;;;;11.80;10.55;;;;;;;21.23;59.07;100523.88;686437;28;1465;-81
2022/06/30 01:13:04;;;;;;;11.18;9.90;;;;;;;21.25;59.01;100530.00;679073;29;1110;-81
2022/06/30 01:13:25;;;;;;;11.30;10.20;;;;;;;21.26;59.03;100536.19;679900;28;1255;-81
2022/06/30 01:13:46;;;;;;;11.52;10.43;;;;;;;21.18;58.90;100520.41;685311;28;1297;-81
2022/06/30 01:14:07;;;;;;;11.73;10.63;;;;;;;21.23;58.79;100532.69;682689;29;1121;-81
2022/06/30 01:14:27;;;;;;;11.00;10.00;;;;;;;21.19;58.76;100522.16;682516;29;1202;-82
2022/06/30 01:14:49;;;;;;;11.10;10.10;;;;;;;21.16;59.31;100520.47;679411;29;1207;-81
2022/06/30 01:15:20;;;;;;;11.20;10.10;;;;;;;21.18;58.89;100525.72;680148;28;1219;-81
2022/06/30 01:15:41;;;;;;;15.63;10.73;;;;;;;21.13;59.13;100511.69;683697;28;1640;-80
2022/06/30 01:16:02;;;;;;;15.52;11.00;;;;;;;21.12;59.10;100513.47;681544;29;1021;-80
2022/06/30 01:16:23;;;;;;;15.32;11.15;;;;;;;21.20;59.15;100530.09;676803;29;1647;-81
2022/06/30 01:16:44;;;;;;;11.55;10.45;;;;;;;21.21;59.39;100529.19;682692;29;1282;-81
2022/06/30 01:17:05;;;;;;;11.73;10.63;;;;;;;21.14;59.22;100518.75;682585;29;1180;-81
2022/06/30 01:17:25;;;;;;;11.90;10.73;;;;;;;21.17;59.00;100530.19;678594;29;1539;-81
2022/06/30 01:17:48;;;;;;;12.23;11.02;;;;;;;21.21;59.30;100531.84;675150;29;1181;-81
2022/06/30 01:18:09;;;;;;;11.95;10.82;;;;;;;21.11;59.14;100517.03;674822;29;943;-80
2022/06/30 01:18:33;;;;;;;11.90;10.77;;;;;;;21.23;59.34;100539.78;676561;29;1315;-81
2022/06/30 01:18:54;;;;;;;13.07;11.15;;;;;;;21.20;59.42;100532.75;674613;29;1524;-81
2022/06/30 01:19:15;;;;;;;12.70;10.93;;;;;;;21.15;59.42;100520.50;674313;29;1410;-81
2022/06/30 01:19:37;;;;;;;11.82;10.75;;;;;;;21.10;59.24;100524.09;677855;29;1653;-81
2022/06/30 01:19:59;;;;;;;11.80;10.70;;;;;;;21.14;59.56;100521.41;682478;29;1016;-82
2022/06/30 01:20:26;;;;;;;12.60;10.60;;;;;;;21.21;59.40;100536.28;682980;28;1557;-81
2022/06/30 01:20:46;;;;;;;12.80;10.85;;;;;;;21.16;59.59;100527.53;687804;28;808;-81
2022/06/30 01:21:07;;;;;;;12.98;10.75;;;;;;;21.13;59.47;100522.31;682840;28;1138;-81
2022/06/30 01:21:28;;;;;;;11.90;10.70;;;;;;;21.15;59.59;100523.16;684328;28;1426;-81
2022/06/30 01:22:02;;;;;;;12.38;11.07;;;;;;;21.10;59.57;100517.94;677444;29;1106;-81
2022/06/30 01:22:23;;;;;;;12.38;11.15;;;;;;;21.16;59.71;100531.09;675726;29;1591;-82
2022/06/30 01:22:45;;;;;;;12.48;11.27;;;;;;;21.10;59.57;100521.44;680002;29;1347;-81
2022/06/30 01:23:06;;;;;;;12.63;11.43;;;;;;;21.08;59.64;100520.59;685312;28;1205;-81
2022/06/30 01:23:43;;;;;;;12.15;11.05;;;;;;;21.13;59.79;100527.63;677153;29;1545;-81
2022/06/30 01:24:04;;;;;;;12.32;11.20;;;;;;;21.11;59.79;100522.34;677306;29;1596;-81
2022/06/30 01:24:24;;;;;;;13.00;11.60;;;;;;;21.06;59.78;100508.28;678504;29;1187;-81
2022/06/30 01:24:45;;;;;;;12.57;11.15;;;;;;;21.09;59.63;100517.06;682764;29;814;-81
2022/06/30 01:25:07;;;;;;;12.27;10.98;;;;;;;21.09;59.59;100517.06;679740;29;1494;-81
2022/06/30 01:25:28;;;;;;;11.70;10.60;;;;;;;21.13;59.69;100527.63;676847;29;1484;-82
2022/06/30 01:25:50;;;;;;;11.20;10.20;;;;;;;21.07;59.63;100518.88;677511;29;1282;-81
2022/06/30 01:26:11;;;;;;;11.40;10.40;;;;;;;21.02;59.76;100512.78;676601;29;1313;-82
2022/06/30 01:26:32;;;;;;;11.90;10.80;;;;;;;21.08;59.86;100525.03;682124;29;1677;-80
2022/06/30 01:27:02;;;;;;;12.30;11.10;;;;;;;21.08;59.80;100514.41;679657;29;1996;-81
2022/06/30 01:27:22;;;;;;;12.55;11.30;;;;;;;21.07;59.74;100523.28;679637;29;1426;-81
2022/06/30 01:27:43;;;;;;;12.55;11.35;;;;;;;21.10;60.09;100528.53;677259;29;1062;-81
2022/06/30 01:28:04;;;;;;;12.70;11.50;;;;;;;21.09;60.02;100524.16;682580;29;1021;-81
2022/06/30 01:28:25;;;;;;;12.73;11.52;;;;;;;21.08;59.96;100525.03;682397;29;1524;-81
2022/06/30 01:28:47;;;;;;;12.73;11.52;;;;;;;21.02;60.04;100515.41;680019;29;1370;-81
2022/06/30 01:29:07;;;;;;;13.07;11.77;;;;;;;21.08;60.04;100525.91;677500;29;981;-82
2022/06/30 01:29:28;;;;;;;13.07;11.77;;;;;;;21.00;60.18;100511.03;676848;29;1524;-80
2022/06/30 01:29:50;;;;;;;13.50;12.20;;;;;;;21.09;60.23;100525.00;676882;29;1718;-81
2022/06/30 01:30:11;;;;;;;13.50;12.20;;;;;;;21.00;60.17;100516.34;680161;29;1468;-81
2022/06/30 01:30:32;;;;;;;13.10;11.80;;;;;;;21.03;60.03;100511.84;682272;28;1681;-80
2022/06/30 01:30:53;;;;;;;13.00;11.30;;;;;;;21.04;60.11;100516.28;677247;29;1334;-81
2022/06/30 01:31:13;;;;;;;14.10;11.85;;;;;;;21.05;60.23;100515.38;682465;29;947;-80
2022/06/30 01:31:35;;;;;;;13.32;11.70;;;;;;;21.03;60.17;100517.16;682658;29;804;-81
2022/06/30 01:31:55;;;;;;;13.15;11.85;;;;;;;21.05;60.18;100515.38;677335;29;1248;-81
2022/06/30 01:32:17;;;;;;;12.30;11.20;;;;;;;21.06;60.26;100511.81;681199;29;1785;-81
2022/06/30 01:32:38;;;;;;;12.73;11.52;;;;;;;21.04;60.40;100510.97;682537;29;1129;-81
2022/06/30 01:32:58;;;;;;;12.80;11.60;;;;;;;21.12;60.23;100525.84;680082;29;1080;-81
2022/06/30 01:33:19;;;;;;;13.00;11.80;;;;;;;21.04;60.21;100507.44;677161;29;1108;-81
2022/06/30 01:33:40;;;;;;;12.77;11.57;;;;;;;21.08;60.45;100520.59;680043;29;1200;-82
2022/06/30 01:34:00;;;;;;;12.80;11.60;;;;;;;21.07;60.06;100517.97;679813;29;1213;-81
2022/06/30 01:34:22;;;;;;;12.70;11.50;;;;;;;21.09;60.33;100525.00;677200;29;1986;-81
2022/06/30 01:34:43;;;;;;;12.63;11.52;;;;;;;21.09;60.17;100519.69;675043;29;1114;-80
2022/06/30 01:35:04;;;;;;;12.38;11.23;;;;;;;21.11;60.34;100519.69;677169;29;1244;-81
2022/06/30 01:35:25;;;;;;;12.60;11.40;;;;;;;21.06;60.21;100518.88;679509;29;2008;-80
2022/06/30 01:35:46;;;;;;;12.70;11.50;;;;;;;21.09;60.25;100517.06;685240;28;1293;-81
2022/06/30 01:36:07;;;;;;;12.70;11.48;;;;;;;21.13;60.21;100527.63;682152;29;1167;-81
2022/06/30 01:36:27;;;;;;;13.00;11.70;;;;;;;21.04;60.34;100507.44;680503;29;1506;-81
2022/06/30 01:36:48;;;;;;;13.00;11.60;;;;;;;21.15;60.49;100531.97;676998;29;1142;-81
2022/06/30 01:37:09;;;;;;;12.52;11.30;;;;;;;21.03;60.28;100505.69;682515;29;1170;-81
2022/06/30 01:37:51;;;;;;;12.80;11.50;;;;;;;21.13;60.41;100533.78;679551;29;1711;-81
2022/06/30 01:38:12;;;;;;;12.65;11.45;;;;;;;21.03;60.40;100513.66;679931;29;1055;-81
2022/06/30 01:38:32;;;;;;;11.85;10.75;;;;;;;21.02;60.28;100517.22;678657;29;2128;-81
2022/06/30 01:38:53;;;;;;;12.60;11.40;;;;;;;21.09;60.35;100527.66;679032;29;1936;-82
2022/06/30 01:39:14;;;;;;;13.00;11.60;;;;;;;21.01;60.64;100513.69;677237;29;1607;-81
2022/06/30 01:39:46;;;;;;;13.38;11.75;;;;;;;21.01;60.65;100518.97;679388;29;1240;-81
2022/06/30 01:40:08;;;;;;;12.60;11.40;;;;;;;21.07;60.48;100528.59;677458;29;1091;-81
2022/06/30 01:40:33;;;;;;;12.60;11.40;;;;;;;21.08;60.53;100530.34;682052;29;1797;-81
2022/06/30 01:40:54;;;;;;;12.63;11.43;;;;;;;21.04;60.51;100521.59;682880;28;1370;-80
2022/06/30 01:41:15;;;;;;;13.15;11.95;;;;;;;21.03;60.59;100517.16;682564;29;1128;-81
2022/06/30 01:41:35;;;;;;;13.07;11.88;;;;;;;21.03;60.55;100522.47;679866;29;1287;-81
2022/06/30 01:41:57;;;;;;;13.10;11.90;;;;;;;21.07;60.59;100529.47;679852;29;1110;-81
2022/06/30 01:42:18;;;;;;;12.90;11.60;;;;;;;21.01;60.59;100518.97;674640;29;1350;-81
2022/06/30 01:42:39;;;;;;;12.98;11.48;;;;;;;21.07;60.63;100526.81;677322;29;1213;-82
2022/06/30 01:43:00;;;;;;;15.02;11.90;;;;;;;21.00;60.56;100511.03;677219;29;1074;-81
2022/06/30 01:43:23;;;;;;;14.75;12.10;;;;;;;21.02;60.49;100520.72;682891;28;1260;-81
2022/06/30 01:43:44;;;;;;;13.80;12.05;;;;;;;21.08;60.56;100525.03;680017;29;1205;-81
2022/06/30 01:44:05;;;;;;;12.70;11.40;;;;;;;21.04;60.46;100521.59;674551;29;1337;-81
2022/06/30 01:44:25;;;;;;;12.50;11.07;;;;;;;20.99;60.63;100509.31;678107;29;1134;-81
2022/06/30 01:44:46;;;;;;;13.93;11.27;;;;;;;20.98;60.51;100521.72;677372;29;1248;-81
2022/06/30 01:45:07;;;;;;;13.52;11.00;;;;;;;21.01;60.33;100513.69;677404;29;959;-81
2022/06/30 01:45:27;;;;;;;12.07;10.82;;;;;;;21.06;60.52;100526.84;681454;29;1475;-81
2022/06/30 01:45:48;;;;;;;11.85;10.70;;;;;;;21.03;60.60;100522.47;677332;29;1050;-81
2022/06/30 01:46:09;;;;;;;12.40;11.27;;;;;;;21.01;60.79;100518.13;677370;29;1305;-82
2022/06/30 01:46:30;;;;;;;13.20;11.80;;;;;;;20.96;60.75;100510.22;687621;28;1667;-81